Terminal Aerodrome Forecast
Issued by NWS Wichita, KS

Home | Current Version | Previous Version | Graphics & Text | Print | Product List | Glossary On
Versions: 1 2 3 4 5 6 7 8 9 10 11 12 13 14 15 16 17 18 19
000
FTUS43 KICT 230521
TAFICT
TAF
KICT 230521Z 2306/2406 36007KT P6SM FEW050 OVC060
     FM230900 35006KT P6SM FEW130 SCT150
     FM240000 05006KT P6SM FEW140=

USA.gov is the U.S. government's official web portal to all federal, state and local government web resources and services.